createdAt,value
2018-07-22T00:00:14.321Z,23.33
2018-07-22T00:03:20.692Z,24.67
2018-07-22T00:06:30.678Z,25.67
2018-07-22T00:09:39.188Z,23.33
2018-07-22T00:12:49.285Z,25.67
2018-07-22T00:15:57.396Z,20.00
2018-07-22T00:19:06.645Z,21.00
2018-07-22T00:22:16.484Z,20.33
2018-07-22T00:25:25.460Z,22.67
2018-07-22T00:28:34.062Z,23.33
2018-07-22T00:31:44.193Z,26.33
2018-07-22T00:34:52.097Z,20.00
2018-07-22T00:37:59.453Z,24.00
2018-07-22T00:41:07.526Z,21.67
2018-07-22T00:44:15.932Z,23.67
2018-07-22T00:47:23.479Z,23.67
2018-07-22T00:50:32.119Z,23.00
2018-07-22T00:53:40.448Z,22.00
2018-07-22T00:56:48.681Z,25.67
2018-07-22T00:59:56.817Z,25.00
2018-07-22T01:03:07.050Z,21.00
2018-07-22T01:06:17.317Z,21.33
2018-07-22T01:09:26.550Z,25.33
2018-07-22T01:12:33.982Z,23.67
2018-07-22T01:15:44.225Z,30.00
2018-07-22T01:18:53.606Z,25.33
2018-07-22T01:22:01.921Z,24.00
2018-07-22T01:25:09.441Z,21.33
2018-07-22T01:28:21.346Z,21.33
2018-07-22T01:31:29.416Z,23.33
2018-07-22T01:34:38.646Z,20.67
2018-07-22T01:37:46.982Z,24.00
2018-07-22T01:40:54.683Z,22.00
2018-07-22T01:44:04.043Z,23.33
2018-07-22T01:47:12.177Z,24.33
2018-07-22T01:50:19.708Z,27.33
2018-07-22T01:53:28.806Z,24.67
2018-07-22T01:56:40.030Z,24.00
2018-07-22T01:59:49.354Z,23.67
2018-07-22T02:03:00.293Z,21.33
2018-07-22T02:06:11.862Z,24.33
2018-07-22T02:09:22.589Z,21.00
2018-07-22T02:12:38.816Z,23.00
2018-07-22T02:18:26.571Z,20.00
2018-07-22T02:21:39.071Z,19.67
2018-07-22T02:24:51.948Z,20.33
2018-07-22T02:28:02.193Z,18.67
2018-07-22T02:31:12.844Z,21.33
2018-07-22T02:34:20.704Z,22.33
2018-07-22T02:37:30.469Z,20.67
2018-07-22T02:40:38.183Z,24.33
2018-07-22T02:43:48.275Z,27.33
2018-07-22T02:47:00.231Z,30.33
2018-07-22T02:50:08.629Z,29.00
2018-07-22T02:53:16.811Z,29.33
2018-07-22T02:56:27.926Z,25.00
2018-07-22T02:59:35.891Z,32.00
2018-07-22T03:02:45.854Z,31.67
2018-07-22T03:05:54.971Z,30.33
2018-07-22T03:09:02.240Z,29.00
2018-07-22T03:12:11.585Z,27.00
2018-07-22T03:15:24.858Z,33.33
2018-07-22T03:18:53.761Z,28.67
2018-07-22T03:22:02.664Z,28.00
2018-07-22T03:25:11.344Z,30.00
2018-07-22T03:28:21.396Z,35.00
2018-07-22T03:31:29.531Z,29.67
2018-07-22T03:34:39.502Z,31.33
2018-07-22T03:37:47.455Z,34.67
2018-07-22T03:40:56.539Z,32.33
2018-07-22T03:44:04.537Z,32.00
2018-07-22T03:47:24.444Z,31.33
2018-07-22T03:50:33.597Z,32.67
2018-07-22T03:53:43.266Z,35.67
2018-07-22T03:56:51.696Z,31.00
2018-07-22T04:00:00.810Z,33.00
2018-07-22T04:03:10.016Z,28.33
2018-07-22T04:05:55.912Z,31.00
2018-07-22T04:08:33.250Z,32.00
2018-07-22T04:11:06.669Z,30.67
2018-07-22T04:13:36.993Z,32.67
2018-07-22T04:16:09.557Z,31.33
2018-07-22T04:18:51.812Z,34.67
2018-07-22T04:21:24.489Z,35.67
2018-07-22T04:23:57.393Z,33.00
2018-07-22T04:26:28.610Z,31.67
2018-07-22T04:28:59.673Z,33.33
2018-07-22T04:31:31.741Z,33.67
2018-07-22T04:34:02.425Z,31.00
2018-07-22T04:36:33.057Z,29.33
2018-07-22T04:39:05.158Z,30.67
2018-07-22T04:41:36.208Z,31.33
2018-07-22T04:44:08.901Z,37.00
2018-07-22T04:46:39.305Z,35.00
2018-07-22T04:49:10.440Z,37.33
2018-07-22T04:51:48.374Z,39.00
2018-07-22T04:54:21.427Z,38.00
2018-07-22T04:56:53.631Z,37.00
2018-07-22T04:59:23.936Z,39.00
2018-07-22T05:01:54.612Z,39.00
2018-07-22T05:04:32.064Z,36.00
2018-07-22T05:07:09.185Z,33.67
2018-07-22T05:09:42.213Z,38.67
2018-07-22T05:12:13.856Z,35.00
2018-07-22T05:14:44.849Z,38.00
2018-07-22T05:17:18.408Z,35.67
2018-07-22T05:19:55.334Z,37.00
2018-07-22T05:22:27.491Z,38.00
2018-07-22T05:25:00.356Z,34.67
2018-07-22T05:27:31.374Z,39.67
2018-07-22T05:30:07.351Z,39.67
2018-07-22T05:32:38.356Z,36.67
2018-07-22T05:35:10.804Z,38.67
2018-07-22T05:37:46.232Z,38.00
2018-07-22T05:40:17.070Z,39.00
2018-07-22T05:42:47.364Z,38.33
2018-07-22T05:45:18.803Z,33.33
2018-07-22T05:47:49.840Z,39.33
2018-07-22T05:50:20.470Z,39.33
2018-07-22T05:52:52.256Z,37.67
2018-07-22T05:55:23.416Z,38.67
2018-07-22T05:57:54.479Z,37.33
2018-07-22T06:00:25.310Z,36.00
2018-07-22T06:02:58.178Z,42.00
2018-07-22T06:05:29.303Z,38.33
2018-07-22T06:08:02.612Z,39.00
2018-07-22T06:10:34.650Z,40.33
2018-07-22T06:13:04.966Z,39.00
2018-07-22T06:15:35.541Z,37.00
2018-07-22T06:18:08.199Z,39.67
2018-07-22T06:20:40.885Z,41.00
2018-07-22T06:23:11.262Z,37.00
2018-07-22T06:25:41.542Z,38.33
2018-07-22T06:28:13.312Z,39.00
2018-07-22T06:30:47.307Z,38.67
2018-07-22T06:33:17.864Z,38.00
2018-07-22T06:35:50.462Z,35.67
2018-07-22T06:38:21.747Z,37.33
2018-07-22T06:40:51.977Z,35.33
2018-07-22T06:43:22.888Z,37.67
2018-07-22T06:45:53.388Z,36.67
2018-07-22T06:48:25.503Z,36.00
2018-07-22T06:50:55.889Z,34.67
2018-07-22T06:53:26.179Z,36.33
2018-07-22T06:55:56.768Z,38.00
2018-07-22T06:58:28.529Z,37.67
2018-07-22T07:00:59.564Z,34.33
2018-07-22T07:03:32.925Z,36.67
2018-07-22T07:06:03.667Z,35.00
2018-07-22T07:08:36.744Z,36.33
2018-07-22T07:11:07.997Z,34.67
2018-07-22T07:13:43.216Z,35.67
2018-07-22T07:16:13.459Z,37.00
2018-07-22T07:18:45.690Z,35.33
2018-07-22T07:21:16.512Z,36.67
2018-07-22T07:23:47.649Z,38.33
2018-07-22T07:26:18.411Z,39.00
2018-07-22T07:28:48.812Z,39.00
2018-07-22T07:31:26.286Z,38.33
2018-07-22T07:33:57.483Z,36.67
2018-07-22T07:36:28.371Z,39.33
2018-07-22T07:39:06.973Z,37.33
2018-07-22T07:41:38.845Z,40.00
2018-07-22T07:44:10.724Z,38.67
2018-07-22T07:46:41.749Z,38.00
2018-07-22T07:49:12.896Z,40.00
2018-07-22T07:51:44.356Z,36.00
2018-07-22T07:54:14.630Z,39.33
2018-07-22T07:56:44.940Z,39.00
2018-07-22T07:59:15.947Z,37.00
2018-07-22T08:01:46.265Z,38.00
2018-07-22T08:04:19.485Z,37.33
2018-07-22T08:06:52.253Z,35.33
2018-07-22T08:09:23.427Z,39.00
2018-07-22T08:11:53.775Z,42.00
2018-07-22T08:14:27.476Z,37.50
2018-07-22T08:16:57.854Z,38.00
2018-07-22T08:19:29.699Z,38.67
2018-07-22T08:22:02.705Z,38.00
2018-07-22T08:24:35.991Z,36.33
2018-07-22T08:27:06.477Z,38.00
2018-07-22T08:29:39.458Z,38.00
2018-07-22T08:32:12.606Z,37.00
2018-07-22T08:34:42.969Z,39.00
2018-07-22T08:37:17.397Z,38.00
2018-07-22T08:39:58.175Z,36.67
2018-07-22T08:42:35.423Z,36.33
2018-07-22T08:45:18.502Z,37.00
2018-07-22T08:47:50.705Z,33.00
2018-07-22T08:50:23.714Z,36.00
2018-07-22T08:52:54.185Z,34.33
2018-07-22T08:55:25.456Z,37.67
2018-07-22T08:57:59.053Z,34.33
2018-07-22T09:00:34.874Z,32.33
2018-07-22T09:03:06.612Z,36.67
2018-07-22T09:05:43.907Z,34.67
2018-07-22T09:08:14.255Z,34.00
2018-07-22T09:10:44.801Z,33.33
2018-07-22T09:13:16.487Z,36.00
2018-07-22T09:15:55.596Z,35.00
2018-07-22T09:18:27.294Z,33.00
2018-07-22T09:20:58.161Z,35.67
2018-07-22T09:23:29.573Z,32.33
2018-07-22T09:26:02.960Z,30.33
2018-07-22T09:28:37.476Z,29.67
2018-07-22T09:31:09.223Z,32.00
2018-07-22T09:33:42.845Z,29.67
2018-07-22T09:36:22.900Z,30.67
2018-07-22T09:38:57.065Z,34.67
2018-07-22T09:41:30.121Z,33.00
2018-07-22T09:44:01.590Z,29.33
2018-07-22T09:46:33.195Z,30.67
2018-07-22T09:49:03.733Z,27.67
2018-07-22T09:51:39.512Z,29.33
2018-07-22T09:54:11.626Z,30.00
2018-07-22T09:56:43.228Z,29.00
2018-07-22T09:59:14.824Z,28.00
2018-07-22T10:01:46.464Z,27.67
2018-07-22T10:04:17.040Z,29.33
2018-07-22T10:06:51.161Z,29.67
2018-07-22T10:09:21.724Z,28.33
2018-07-22T10:11:53.067Z,27.67
2018-07-22T10:14:23.371Z,27.67
2018-07-22T10:16:54.674Z,27.33
2018-07-22T10:19:24.924Z,29.33
2018-07-22T10:21:55.224Z,28.67
2018-07-22T10:24:26.299Z,26.67
2018-07-22T10:26:59.893Z,27.33
2018-07-22T10:29:33.004Z,26.33
2018-07-22T10:32:05.119Z,29.33
2018-07-22T10:34:35.351Z,23.00
2018-07-22T10:37:07.145Z,27.00
2018-07-22T10:39:38.523Z,25.67
2018-07-22T10:42:10.721Z,26.00
2018-07-22T10:44:42.589Z,26.67
2018-07-22T10:47:12.904Z,26.00
2018-07-22T10:49:43.911Z,27.00
2018-07-22T10:52:14.861Z,24.00
2018-07-22T10:54:51.043Z,26.00
2018-07-22T10:57:21.392Z,22.67
2018-07-22T10:59:51.632Z,24.33
2018-07-22T11:02:22.003Z,26.00
2018-07-22T11:04:55.661Z,25.33
2018-07-22T11:07:26.944Z,23.67
2018-07-22T11:09:58.993Z,22.33
2018-07-22T11:12:31.053Z,23.00
2018-07-22T11:15:06.508Z,24.33
2018-07-22T11:17:37.095Z,25.00
2018-07-22T11:20:08.017Z,20.67
2018-07-22T11:22:38.844Z,23.33
2018-07-22T11:25:10.743Z,22.33
2018-07-22T11:27:42.560Z,23.67
2018-07-22T11:30:15.571Z,23.67
2018-07-22T11:32:47.392Z,22.00
2018-07-22T11:35:20.687Z,23.00
2018-07-22T11:37:51.016Z,23.00
2018-07-22T11:40:22.470Z,20.67
2018-07-22T11:42:54.328Z,21.00
2018-07-22T11:45:24.621Z,22.33
2018-07-22T11:47:55.780Z,25.33
2018-07-22T11:50:26.270Z,23.33
2018-07-22T11:52:57.513Z,22.33
2018-07-22T11:55:27.885Z,20.33
2018-07-22T11:58:02.477Z,24.67
2018-07-22T12:00:32.781Z,22.00
2018-07-22T12:03:03.212Z,23.33
2018-07-22T12:05:34.299Z,22.00
2018-07-22T12:08:05.287Z,23.00
2018-07-22T12:10:35.983Z,22.67
2018-07-22T12:13:07.317Z,19.67
2018-07-22T12:15:38.448Z,23.33
2018-07-22T12:18:09.068Z,24.67
2018-07-22T12:20:39.479Z,22.33
2018-07-22T12:23:11.450Z,23.00
2018-07-22T12:25:43.263Z,23.00
2018-07-22T12:28:14.427Z,24.00
2018-07-22T12:30:49.279Z,25.00
2018-07-22T12:33:21.684Z,27.67
2018-07-22T12:35:53.910Z,28.00
2018-07-22T12:38:24.734Z,28.00
2018-07-22T12:40:57.140Z,28.00
2018-07-22T12:43:29.297Z,31.67
2018-07-22T12:46:01.347Z,29.33
2018-07-22T12:48:31.735Z,31.00
2018-07-22T12:51:04.375Z,32.00
2018-07-22T12:53:35.088Z,31.00
2018-07-22T12:56:06.802Z,28.67
2018-07-22T12:58:37.887Z,28.00
2018-07-22T13:01:09.215Z,31.00
2018-07-22T13:03:41.299Z,29.00
2018-07-22T13:06:12.821Z,27.33
2018-07-22T13:08:44.265Z,29.00
2018-07-22T13:11:17.203Z,32.00
2018-07-22T13:13:48.192Z,31.00
2018-07-22T13:16:19.543Z,27.67
2018-07-22T13:18:50.152Z,31.00
2018-07-22T13:21:22.633Z,30.67
2018-07-22T13:23:53.016Z,28.67
2018-07-22T13:26:23.341Z,31.67
2018-07-22T13:28:53.741Z,31.00
2018-07-22T13:31:25.756Z,32.00
2018-07-22T13:33:57.600Z,31.67
2018-07-22T13:36:29.139Z,28.33
2018-07-22T13:39:00.388Z,31.00
2018-07-22T13:41:33.198Z,27.33
2018-07-22T13:44:06.175Z,23.00
2018-07-22T13:46:40.753Z,16.00
2018-07-22T13:49:11.830Z,16.67
2018-07-22T13:51:43.479Z,17.00
2018-07-22T13:54:15.541Z,17.33
2018-07-22T13:56:53.167Z,18.00
2018-07-22T14:02:20.322Z,23.33
2018-07-22T14:04:56.730Z,24.00
2018-07-22T14:07:34.485Z,25.33
2018-07-22T14:10:12.219Z,28.00
2018-07-22T14:15:25.522Z,32.00
2018-07-22T14:17:59.473Z,32.67
2018-07-22T14:20:40.706Z,27.00
2018-07-22T14:23:16.425Z,26.00
2018-07-22T14:25:49.608Z,22.67
2018-07-22T14:55:11.333Z,22.33
2018-07-22T15:09:52.683Z,26.00
2018-07-22T15:12:32.113Z,37.00
2018-07-22T15:17:56.227Z,36.67
2018-07-22T15:20:27.591Z,36.00
2018-07-22T15:22:58.841Z,38.00
2018-07-22T15:25:31.951Z,38.00
2018-07-22T15:28:02.761Z,37.00
2018-07-22T15:30:37.444Z,37.75
2018-07-22T15:33:10.534Z,37.00
2018-07-22T15:35:44.630Z,34.00
2018-07-22T15:38:15.312Z,37.00
2018-07-22T15:40:46.660Z,35.00
2018-07-22T15:43:18.269Z,37.33
2018-07-22T15:45:56.002Z,34.33
2018-07-22T15:48:29.366Z,32.00
2018-07-22T15:50:59.874Z,36.00
2018-07-22T15:53:33.835Z,30.33
2018-07-22T15:56:11.704Z,31.00
2018-07-22T15:58:42.052Z,29.00
2018-07-22T16:01:13.186Z,32.67
2018-07-22T16:03:44.436Z,27.00
2018-07-22T16:06:15.694Z,27.33
2018-07-22T16:08:49.674Z,27.33
2018-07-22T16:11:21.471Z,27.00
2018-07-22T16:13:53.276Z,26.67
2018-07-22T16:16:27.745Z,27.33
2018-07-22T16:19:02.067Z,28.67
2018-07-22T16:21:32.432Z,25.00
2018-07-22T16:24:03.046Z,27.33
2018-07-22T16:26:37.801Z,23.00
2018-07-22T16:29:09.716Z,25.00
2018-07-22T16:31:40.029Z,27.00
2018-07-22T16:34:10.248Z,20.67
2018-07-22T16:36:40.466Z,22.00
2018-07-22T16:39:11.086Z,21.00
2018-07-22T16:41:42.860Z,22.00
2018-07-22T16:44:13.849Z,23.00
2018-07-22T16:46:44.023Z,21.33
2018-07-22T16:49:15.117Z,24.67
2018-07-22T16:51:46.359Z,22.33
2018-07-22T16:54:17.137Z,21.00
2018-07-22T16:56:47.525Z,21.33
2018-07-22T16:59:18.424Z,22.67
2018-07-22T17:01:49.588Z,19.33
2018-07-22T17:04:22.778Z,20.00
2018-07-22T17:06:53.099Z,20.00
2018-07-22T17:09:24.594Z,21.00
2018-07-22T17:11:55.067Z,21.00
2018-07-22T17:14:27.767Z,19.67
2018-07-22T17:16:59.063Z,19.67
2018-07-22T17:19:30.450Z,20.00
2018-07-22T17:22:01.213Z,20.33
2018-07-22T17:24:31.505Z,20.33
2018-07-22T17:27:03.762Z,18.00
2018-07-22T17:29:34.598Z,18.67
2018-07-22T17:32:08.662Z,20.67
2018-07-22T17:34:41.736Z,19.00
2018-07-22T17:37:11.988Z,18.00
2018-07-22T17:39:47.187Z,23.00
2018-07-22T17:42:18.531Z,22.00
2018-07-22T17:44:49.328Z,32.33
2018-07-22T17:47:19.498Z,23.00
2018-07-22T17:49:50.066Z,22.00
2018-07-22T17:52:21.843Z,22.33
2018-07-22T17:54:54.815Z,22.33
2018-07-22T17:57:25.579Z,21.33
2018-07-22T17:59:55.791Z,21.67
2018-07-22T18:02:29.089Z,23.67
2018-07-22T18:05:00.520Z,25.33
2018-07-22T18:07:31.144Z,26.00
2018-07-22T18:10:01.789Z,25.00
2018-07-22T18:12:32.219Z,24.00
2018-07-22T18:15:04.249Z,21.00
2018-07-22T18:17:38.628Z,25.67
2018-07-22T18:20:09.662Z,24.00
2018-07-22T18:22:43.468Z,22.33
2018-07-22T18:25:14.003Z,22.00
2018-07-22T18:27:45.681Z,20.33
2018-07-22T18:30:20.645Z,21.00
2018-07-22T18:32:51.398Z,20.33
2018-07-22T18:35:24.770Z,22.00
2018-07-22T18:37:55.605Z,22.67
2018-07-22T18:40:31.356Z,20.00
2018-07-22T18:43:07.315Z,22.67
2018-07-22T18:45:40.400Z,23.67
2018-07-22T18:48:14.875Z,23.33
2018-07-22T18:50:47.149Z,22.33
2018-07-22T18:53:21.307Z,24.67
2018-07-22T18:55:54.149Z,25.00
2018-07-22T18:58:30.165Z,21.33
2018-07-22T19:01:05.801Z,21.33
2018-07-22T19:03:39.076Z,22.33
2018-07-22T19:06:10.233Z,22.00
2018-07-22T19:08:41.690Z,26.33
2018-07-22T19:11:12.855Z,20.33
2018-07-22T19:13:49.043Z,23.00
2018-07-22T19:16:24.211Z,23.00
2018-07-22T19:18:55.815Z,23.33
2018-07-22T19:21:26.737Z,24.00
2018-07-22T19:23:59.755Z,21.67
2018-07-22T19:26:33.322Z,26.00
2018-07-22T19:29:10.218Z,23.00
2018-07-22T19:31:40.702Z,25.33
2018-07-22T19:34:16.857Z,26.33
2018-07-22T19:36:48.615Z,25.00
2018-07-22T19:39:31.457Z,24.67
2018-07-22T19:42:20.331Z,29.00
2018-07-22T19:48:06.745Z,24.67
2018-07-22T19:50:49.783Z,25.67
2018-07-22T19:53:23.822Z,24.00
2018-07-22T19:55:56.400Z,27.33
2018-07-22T19:58:29.077Z,24.00
2018-07-22T20:01:00.488Z,25.33
2018-07-22T20:03:34.776Z,26.00
2018-07-22T20:06:06.436Z,24.67
2018-07-22T20:08:41.403Z,23.67
2018-07-22T20:11:13.690Z,27.00
2018-07-22T20:13:44.606Z,24.33
2018-07-22T20:16:18.837Z,24.67
2018-07-22T20:18:49.706Z,23.33
2018-07-22T20:21:21.320Z,27.67
2018-07-22T20:23:52.131Z,28.33
2018-07-22T20:26:26.899Z,25.67
2018-07-22T20:28:58.572Z,28.00
2018-07-22T20:31:31.867Z,25.67
2018-07-22T20:34:05.147Z,25.67
2018-07-22T20:36:36.547Z,25.67
2018-07-22T20:39:11.092Z,25.33
2018-07-22T20:41:42.676Z,24.00
2018-07-22T20:44:13.302Z,25.67
2018-07-22T20:46:47.867Z,24.67
2018-07-22T20:49:26.674Z,27.33
2018-07-22T20:51:57.927Z,24.33
2018-07-22T20:54:33.981Z,24.67
2018-07-22T20:57:10.806Z,26.67
2018-07-22T20:59:43.251Z,25.67
2018-07-22T21:02:20.268Z,25.67
2018-07-22T21:04:52.522Z,28.00
2018-07-22T21:08:03.038Z,26.67
2018-07-22T21:10:39.889Z,28.67
2018-07-22T21:13:19.678Z,27.00
2018-07-22T21:15:58.421Z,31.67
2018-07-22T21:18:39.520Z,27.33
2018-07-22T21:21:13.195Z,31.00
2018-07-22T21:23:46.344Z,26.33
2018-07-22T21:26:18.061Z,29.00
2018-07-22T21:28:51.737Z,29.67
2018-07-22T21:31:22.438Z,26.33
2018-07-22T21:33:59.368Z,25.00
2018-07-22T21:36:37.357Z,26.67
2018-07-22T21:39:16.428Z,27.67
2018-07-22T21:41:51.110Z,26.00
2018-07-22T21:44:30.492Z,25.67
2018-07-22T21:47:06.915Z,26.00
2018-07-22T21:49:43.464Z,25.67
2018-07-22T21:52:23.603Z,24.00
2018-07-22T21:54:57.654Z,26.00
2018-07-22T21:57:28.425Z,28.00
2018-07-22T22:00:07.553Z,25.00
2018-07-22T22:02:38.830Z,24.00
2018-07-22T22:05:10.665Z,25.00
2018-07-22T22:07:41.777Z,24.00
2018-07-22T22:10:13.485Z,25.00
2018-07-22T22:12:47.406Z,26.00
2018-07-22T22:15:24.078Z,24.00
2018-07-22T22:18:00.560Z,28.67
2018-07-22T22:20:32.376Z,26.33
2018-07-22T22:23:18.038Z,24.33
2018-07-22T22:25:48.767Z,24.67
2018-07-22T22:28:19.595Z,25.67
2018-07-22T22:30:50.718Z,26.00
2018-07-22T22:33:25.220Z,24.33
2018-07-22T22:35:57.856Z,27.00
2018-07-22T22:38:29.503Z,28.67
2018-07-22T22:41:01.431Z,25.00
2018-07-22T22:43:34.124Z,29.33
2018-07-22T22:46:09.287Z,28.33
2018-07-22T22:48:41.515Z,27.33
2018-07-22T22:51:22.606Z,27.00
2018-07-22T22:53:54.723Z,25.33
2018-07-22T22:56:30.103Z,28.33
2018-07-22T22:59:14.332Z,26.67
2018-07-22T23:01:50.552Z,29.00
2018-07-22T23:04:21.443Z,29.67
2018-07-22T23:06:55.522Z,26.00
2018-07-22T23:09:30.340Z,26.67
2018-07-22T23:12:16.033Z,29.67
2018-07-22T23:14:54.615Z,27.00
2018-07-22T23:17:29.616Z,28.00
2018-07-22T23:20:02.801Z,28.67
2018-07-22T23:22:33.880Z,30.33
2018-07-22T23:25:04.397Z,28.67
2018-07-22T23:27:44.593Z,30.00
2018-07-22T23:30:19.236Z,27.67
2018-07-22T23:32:52.325Z,30.33
2018-07-22T23:35:23.620Z,28.00
2018-07-22T23:37:57.056Z,29.67
2018-07-22T23:40:28.800Z,29.00
2018-07-22T23:42:59.635Z,30.33
2018-07-22T23:45:33.506Z,33.67
2018-07-22T23:48:07.555Z,31.00
2018-07-22T23:50:39.412Z,32.67
2018-07-22T23:53:11.124Z,38.00
2018-07-22T23:55:43.426Z,37.67
2018-07-22T23:58:14.721Z,33.67
